createdAt,value
2022-08-21T00:00:43.644Z,19.00
2022-08-21T00:03:33.215Z,18.45
2022-08-21T00:06:07.023Z,16.65
2022-08-21T00:08:51.478Z,17.95
2022-08-21T00:11:28.013Z,21.13
2022-08-21T00:14:07.580Z,21.35
2022-08-21T00:16:48.007Z,23.73
2022-08-21T00:19:26.562Z,25.38
2022-08-21T00:22:09.960Z,21.65
2022-08-21T00:24:50.869Z,20.45
2022-08-21T00:27:30.733Z,20.38
2022-08-21T00:30:09.543Z,20.33
2022-08-21T00:32:42.855Z,19.38
2022-08-21T00:35:25.489Z,22.35
2022-08-21T00:38:02.875Z,18.75
2022-08-21T00:40:42.882Z,21.23
2022-08-21T00:43:21.939Z,22.27
2022-08-21T00:46:05.661Z,24.52
2022-08-21T00:48:46.570Z,23.77
2022-08-21T00:51:29.438Z,22.90
2022-08-21T00:54:06.736Z,23.38
2022-08-21T00:56:56.852Z,24.83
2022-08-21T00:59:45.368Z,24.20
2022-08-21T01:02:23.186Z,22.52
2022-08-21T01:04:55.230Z,22.42
2022-08-21T01:07:35.620Z,24.92
2022-08-21T01:10:18.798Z,22.15
2022-08-21T01:12:56.251Z,25.58
2022-08-21T01:15:33.435Z,22.65
2022-08-21T01:18:22.218Z,21.38
2022-08-21T01:21:17.731Z,20.55
2022-08-21T01:24:03.252Z,17.73
2022-08-21T01:26:38.775Z,17.13
2022-08-21T01:29:42.432Z,17.30
2022-08-21T01:32:24.409Z,17.15
2022-08-21T01:34:58.683Z,16.88
2022-08-21T01:37:25.580Z,20.25
2022-08-21T01:40:01.353Z,22.08
2022-08-21T01:42:39.771Z,27.30
2022-08-21T01:45:24.071Z,28.05
2022-08-21T01:48:07.969Z,27.10
2022-08-21T01:53:12.448Z,31.77
2022-08-21T01:55:50.278Z,40.63
2022-08-21T01:58:29.214Z,40.15
2022-08-21T02:01:11.614Z,39.38
2022-08-21T02:03:54.626Z,37.85
2022-08-21T02:06:26.573Z,38.03
2022-08-21T02:09:05.550Z,42.17
2022-08-21T02:11:48.992Z,41.97
2022-08-21T02:14:28.646Z,35.30
2022-08-21T02:17:12.498Z,40.25
2022-08-21T02:19:54.115Z,39.25
2022-08-21T02:22:32.851Z,36.40
2022-08-21T02:25:16.549Z,37.50
2022-08-21T02:28:01.918Z,34.42
2022-08-21T02:30:40.044Z,30.40
2022-08-21T02:33:21.917Z,33.63
2022-08-21T02:35:58.636Z,33.65
2022-08-21T02:38:45.760Z,30.45
2022-08-21T02:41:22.312Z,33.10
2022-08-21T02:44:00.586Z,29.67
2022-08-21T02:46:39.446Z,32.72
2022-08-21T02:49:20.443Z,31.98
2022-08-21T02:52:01.865Z,29.25
2022-08-21T02:54:36.688Z,29.27
2022-08-21T02:57:17.081Z,30.50
2022-08-21T02:59:56.869Z,31.35
2022-08-21T03:02:46.164Z,30.83
2022-08-21T03:05:24.603Z,34.13
2022-08-21T03:08:03.471Z,33.47
2022-08-21T03:10:44.246Z,34.33
2022-08-21T03:13:22.351Z,38.08
2022-08-21T03:16:02.696Z,39.80
2022-08-21T03:18:37.955Z,38.42
2022-08-21T03:21:19.607Z,35.93
2022-08-21T03:23:55.297Z,35.70
2022-08-21T03:26:36.435Z,35.38
2022-08-21T03:29:20.975Z,36.05
2022-08-21T03:31:51.551Z,32.20
2022-08-21T03:34:27.771Z,37.92
2022-08-21T03:37:08.775Z,41.03
2022-08-21T03:39:52.782Z,39.63
2022-08-21T03:42:27.960Z,34.97
2022-08-21T03:45:09.577Z,32.95
2022-08-21T03:48:01.422Z,29.85
2022-08-21T03:50:43.074Z,31.65
2022-08-21T03:53:24.131Z,30.10
2022-08-21T03:55:59.476Z,31.30
2022-08-21T03:58:34.829Z,33.40
2022-08-21T04:01:12.506Z,34.95
2022-08-21T04:03:48.454Z,33.60
2022-08-21T04:06:34.551Z,31.67
2022-08-21T04:09:10.818Z,35.53
2022-08-21T04:11:50.916Z,33.88
2022-08-21T04:14:29.952Z,34.67
2022-08-21T04:17:18.894Z,40.45
2022-08-21T04:20:03.082Z,39.45
2022-08-21T04:22:49.089Z,38.05
2022-08-21T04:25:27.611Z,38.33
2022-08-21T04:28:06.587Z,37.15
2022-08-21T04:30:45.044Z,39.03
2022-08-21T04:33:19.788Z,40.13
2022-08-21T04:35:58.030Z,38.15
2022-08-21T04:38:44.660Z,33.53
2022-08-21T04:41:28.048Z,30.60
2022-08-21T04:44:00.645Z,28.37
2022-08-21T04:46:39.452Z,27.63
2022-08-21T04:49:23.136Z,29.45
2022-08-21T04:51:59.596Z,28.98
2022-08-21T04:54:37.909Z,30.92
2022-08-21T04:57:19.856Z,28.25
2022-08-21T04:59:57.996Z,32.85
2022-08-21T05:02:39.428Z,28.90
2022-08-21T05:05:18.308Z,36.00
2022-08-21T05:07:57.102Z,35.63
2022-08-21T05:10:33.577Z,36.25
2022-08-21T05:13:01.657Z,38.55
2022-08-21T05:15:40.456Z,36.28
2022-08-21T05:18:24.063Z,34.13
2022-08-21T05:21:10.111Z,35.78
2022-08-21T05:23:48.021Z,38.40
2022-08-21T05:26:26.195Z,33.30
2022-08-21T05:29:02.133Z,31.85
2022-08-21T05:31:35.581Z,32.20
2022-08-21T05:34:10.620Z,30.05
2022-08-21T05:37:07.373Z,28.50
2022-08-21T05:40:04.546Z,26.60
2022-08-21T05:42:55.505Z,25.13
2022-08-21T05:45:43.491Z,24.00
2022-08-21T05:48:28.881Z,21.17
2022-08-21T05:51:10.802Z,24.00
2022-08-21T05:53:54.186Z,23.33
2022-08-21T05:56:32.554Z,23.63
2022-08-21T05:59:12.912Z,20.98
2022-08-21T06:01:54.622Z,19.92
2022-08-21T06:04:45.409Z,20.25
2022-08-21T06:07:26.339Z,19.38
2022-08-21T06:10:09.681Z,18.65
2022-08-21T06:12:53.677Z,18.75
2022-08-21T06:15:28.729Z,19.98
2022-08-21T06:18:11.509Z,25.23
2022-08-21T06:20:49.560Z,25.08
2022-08-21T06:23:33.146Z,21.80
2022-08-21T06:26:17.580Z,22.23
2022-08-21T06:28:51.566Z,25.10
2022-08-21T06:31:29.587Z,24.48
2022-08-21T06:34:08.327Z,24.08
2022-08-21T06:36:40.539Z,20.70
2022-08-21T06:39:24.686Z,21.33
2022-08-21T06:42:10.215Z,17.30
2022-08-21T06:44:53.547Z,16.95
2022-08-21T06:47:34.579Z,17.67
2022-08-21T06:50:10.250Z,16.25
2022-08-21T06:53:04.956Z,16.23
2022-08-21T06:55:40.594Z,14.60
2022-08-21T06:58:16.506Z,14.32
2022-08-21T07:01:02.912Z,14.85
2022-08-21T07:03:46.578Z,14.43
2022-08-21T07:06:21.710Z,14.57
2022-08-21T07:09:05.821Z,13.98
2022-08-21T07:11:47.733Z,13.65
2022-08-21T07:14:28.841Z,13.95
2022-08-21T07:17:08.111Z,14.27
2022-08-21T07:19:48.346Z,13.07
2022-08-21T07:22:25.514Z,14.23
2022-08-21T07:25:02.521Z,13.90
2022-08-21T07:27:45.656Z,13.52
2022-08-21T07:30:22.491Z,14.07
2022-08-21T07:33:03.036Z,13.25
2022-08-21T07:35:37.832Z,13.38
2022-08-21T07:38:18.608Z,14.23
2022-08-21T07:41:02.915Z,13.63
2022-08-21T07:43:45.917Z,13.23
2022-08-21T07:46:32.767Z,14.20
2022-08-21T07:49:09.916Z,13.38
2022-08-21T07:51:47.847Z,12.23
2022-08-21T07:54:33.301Z,12.30
2022-08-21T07:57:18.805Z,13.13
2022-08-21T07:59:59.910Z,12.82
2022-08-21T08:02:55.643Z,11.55
2022-08-21T08:05:33.814Z,13.35
2022-08-21T08:08:11.335Z,12.68
2022-08-21T08:10:47.809Z,11.18
2022-08-21T08:13:34.584Z,11.45
2022-08-21T08:18:44.644Z,12.02
2022-08-21T08:21:21.117Z,11.30
2022-08-21T08:23:54.004Z,11.50
2022-08-21T08:26:38.548Z,11.10
2022-08-21T08:29:22.549Z,9.90
2022-08-21T08:32:00.566Z,8.82
2022-08-21T08:34:41.343Z,9.65
2022-08-21T08:37:25.447Z,8.48
2022-08-21T08:40:12.677Z,8.63
2022-08-21T08:42:51.677Z,9.20
2022-08-21T08:45:27.201Z,8.65
2022-08-21T08:48:14.412Z,8.38
2022-08-21T08:51:15.408Z,9.05
2022-08-21T08:54:00.716Z,8.30
2022-08-21T08:56:42.393Z,9.23
2022-08-21T08:59:45.757Z,8.43
2022-08-21T09:02:24.129Z,8.40
2022-08-21T09:05:01.111Z,9.52
2022-08-21T09:07:48.243Z,8.88
2022-08-21T09:10:38.492Z,9.10
2022-08-21T09:13:38.493Z,9.23
2022-08-21T09:17:07.310Z,8.55
2022-08-21T09:20:06.294Z,8.48
2022-08-21T09:22:54.061Z,8.70
2022-08-21T09:25:36.907Z,8.10
2022-08-21T09:28:17.523Z,7.80
2022-08-21T09:31:03.548Z,8.98
2022-08-21T09:33:44.840Z,8.32
2022-08-21T09:36:39.349Z,8.88
2022-08-21T09:39:24.366Z,8.25
2022-08-21T09:42:07.762Z,10.38
2022-08-21T09:44:44.971Z,8.98
2022-08-21T09:47:33.145Z,10.32
2022-08-21T09:50:27.834Z,9.68
2022-08-21T09:53:14.726Z,10.32
2022-08-21T09:56:35.649Z,9.57
2022-08-21T09:59:25.670Z,9.65
2022-08-21T10:02:04.631Z,9.30
2022-08-21T10:04:47.007Z,10.27
2022-08-21T10:07:26.363Z,10.70
2022-08-21T10:10:35.442Z,10.20
2022-08-21T10:13:35.748Z,8.40
2022-08-21T10:16:46.395Z,8.73
2022-08-21T10:19:41.999Z,10.07
2022-08-21T10:22:31.040Z,9.45
2022-08-21T10:25:15.184Z,10.00
2022-08-21T10:28:13.731Z,9.80
2022-08-21T10:31:12.695Z,9.43
2022-08-21T10:33:59.944Z,12.07
2022-08-21T10:37:12.573Z,10.48
2022-08-21T10:40:00.978Z,12.45
2022-08-21T10:42:52.698Z,11.05
2022-08-21T10:45:54.239Z,10.82
2022-08-21T10:51:36.846Z,9.55
2022-08-21T10:54:35.571Z,8.65
2022-08-21T10:57:32.384Z,10.45
2022-08-21T11:00:16.767Z,8.95
2022-08-21T11:02:58.410Z,9.80
2022-08-21T11:05:50.117Z,9.32
2022-08-21T11:09:00.639Z,8.40
2022-08-21T11:11:53.885Z,8.77
2022-08-21T11:14:50.766Z,9.77
2022-08-21T11:17:33.932Z,10.02
2022-08-21T11:20:32.025Z,9.35
2022-08-21T11:23:20.361Z,9.45
2022-08-21T11:26:01.958Z,8.95
2022-08-21T11:28:55.906Z,8.73
2022-08-21T11:31:42.322Z,8.77
2022-08-21T11:34:39.699Z,9.20
2022-08-21T11:37:35.339Z,7.93
2022-08-21T11:40:25.652Z,8.60
2022-08-21T11:43:23.920Z,9.48
2022-08-21T11:46:08.191Z,8.32
2022-08-21T11:49:03.185Z,9.00
2022-08-21T11:51:53.429Z,8.65
2022-08-21T11:54:37.269Z,8.50
2022-08-21T11:57:17.020Z,8.82
2022-08-21T12:00:13.887Z,8.85
2022-08-21T12:02:58.695Z,8.25
2022-08-21T12:05:49.438Z,9.50
2022-08-21T12:08:44.174Z,8.50
2022-08-21T12:11:30.589Z,8.75
2022-08-21T12:14:21.879Z,8.57
2022-08-21T12:17:05.134Z,7.97
2022-08-21T12:19:44.763Z,8.25
2022-08-21T12:22:23.573Z,8.27
2022-08-21T12:25:21.021Z,8.65
2022-08-21T12:28:10.265Z,7.68
2022-08-21T12:30:54.904Z,8.15
2022-08-21T12:33:43.232Z,8.02
2022-08-21T12:36:22.349Z,7.65
2022-08-21T12:39:06.144Z,7.65
2022-08-21T12:44:42.849Z,7.07
2022-08-21T12:47:34.323Z,8.25
2022-08-21T12:50:17.350Z,7.50
2022-08-21T12:53:25.152Z,8.27
2022-08-21T12:56:10.071Z,7.20
2022-08-21T12:59:01.697Z,7.30
2022-08-21T13:01:42.152Z,7.35
2022-08-21T13:04:21.394Z,6.85
2022-08-21T13:07:06.425Z,7.40
2022-08-21T13:10:00.192Z,7.20
2022-08-21T13:12:36.569Z,7.13
2022-08-21T13:15:15.176Z,7.28
2022-08-21T13:18:11.081Z,7.55
2022-08-21T13:20:58.121Z,6.22
2022-08-21T13:23:36.721Z,7.32
2022-08-21T13:26:21.831Z,6.70
2022-08-21T13:29:13.944Z,6.25
2022-08-21T13:32:05.387Z,6.70
2022-08-21T13:34:53.924Z,7.03
2022-08-21T13:37:33.558Z,6.57
2022-08-21T13:40:14.088Z,6.25
2022-08-21T13:42:49.049Z,6.85
2022-08-21T13:45:42.835Z,6.47
2022-08-21T13:48:21.194Z,6.03
2022-08-21T13:50:53.792Z,6.05
2022-08-21T13:53:37.473Z,6.45
2022-08-21T13:56:45.555Z,6.00
2022-08-21T13:59:39.059Z,5.85
2022-08-21T14:02:23.535Z,5.63
2022-08-21T14:05:12.195Z,5.63
2022-08-21T14:07:49.104Z,5.75
2022-08-21T14:10:31.434Z,5.70
2022-08-21T14:13:22.379Z,5.53
2022-08-21T14:16:04.593Z,5.70
2022-08-21T14:18:47.026Z,5.57
2022-08-21T14:21:35.399Z,5.53
2022-08-21T14:24:15.438Z,5.57
2022-08-21T14:27:05.077Z,5.45
2022-08-21T14:29:48.546Z,5.10
2022-08-21T14:32:34.100Z,5.80
2022-08-21T14:35:11.971Z,4.45
2022-08-21T14:37:53.394Z,5.13
2022-08-21T14:40:46.763Z,4.22
2022-08-21T14:43:21.599Z,4.32
2022-08-21T14:45:57.144Z,4.10
2022-08-21T14:48:30.739Z,3.72
2022-08-21T14:51:05.908Z,3.97
2022-08-21T14:53:46.361Z,4.05
2022-08-21T14:56:24.902Z,3.47
2022-08-21T14:59:06.578Z,3.55
2022-08-21T15:01:45.067Z,3.45
2022-08-21T15:04:29.481Z,3.33
2022-08-21T15:07:05.623Z,3.25
2022-08-21T15:09:49.694Z,3.08
2022-08-21T15:12:24.541Z,3.08
2022-08-21T15:15:05.193Z,2.75
2022-08-21T15:17:47.706Z,3.38
2022-08-21T15:20:26.589Z,3.88
2022-08-21T15:23:01.520Z,4.03
2022-08-21T15:25:42.948Z,4.65
2022-08-21T15:28:20.800Z,4.90
2022-08-21T15:30:50.882Z,6.13
2022-08-21T15:33:29.739Z,7.22
2022-08-21T15:36:13.482Z,9.45
2022-08-21T15:39:00.338Z,8.07
2022-08-21T15:41:38.600Z,8.07
2022-08-21T15:44:17.714Z,8.52
2022-08-21T15:46:56.020Z,10.20
2022-08-21T15:49:28.359Z,9.25
2022-08-21T15:51:56.756Z,10.43
2022-08-21T15:54:27.589Z,10.18
2022-08-21T15:56:58.734Z,10.60
2022-08-21T15:59:30.154Z,11.57
2022-08-21T16:02:09.888Z,10.63
2022-08-21T16:04:40.517Z,10.57
2022-08-21T16:07:09.649Z,10.57
2022-08-21T16:09:43.611Z,10.65
2022-08-21T16:12:24.119Z,11.43
2022-08-21T16:15:04.258Z,12.18
2022-08-21T16:17:38.049Z,9.93
2022-08-21T16:20:13.017Z,10.90
2022-08-21T16:22:49.940Z,11.25
2022-08-21T16:25:25.422Z,10.30
2022-08-21T16:28:02.596Z,12.27
2022-08-21T16:30:30.986Z,14.00
2022-08-21T16:33:00.046Z,11.88
2022-08-21T16:35:27.021Z,12.85
2022-08-21T16:37:59.651Z,11.88
2022-08-21T16:40:27.791Z,12.27
2022-08-21T16:43:03.943Z,11.30
2022-08-21T16:45:45.206Z,14.07
2022-08-21T16:48:27.256Z,15.52
2022-08-21T16:51:12.745Z,16.85
2022-08-21T16:54:00.024Z,20.52
2022-08-21T16:56:39.717Z,16.90
2022-08-21T16:59:28.999Z,16.45
2022-08-21T17:02:06.486Z,13.90
2022-08-21T17:04:53.038Z,14.65
2022-08-21T17:07:37.140Z,16.30
2022-08-21T17:10:23.210Z,15.57
2022-08-21T17:13:07.709Z,14.85
2022-08-21T17:15:51.253Z,14.43
2022-08-21T17:21:18.452Z,13.82
2022-08-21T17:23:59.518Z,15.15
2022-08-21T17:26:34.360Z,12.75
2022-08-21T17:29:18.293Z,14.38
2022-08-21T17:32:07.025Z,14.57
2022-08-21T17:34:47.884Z,14.85
2022-08-21T17:37:18.015Z,13.48
2022-08-21T17:40:03.051Z,13.45
2022-08-21T17:42:54.239Z,13.55
2022-08-21T17:45:25.682Z,13.20
2022-08-21T17:48:11.459Z,11.63
2022-08-21T17:50:56.264Z,12.10
2022-08-21T17:53:31.772Z,13.55
2022-08-21T17:56:12.935Z,14.50
2022-08-21T17:58:58.617Z,14.88
2022-08-21T18:01:43.936Z,15.48
2022-08-21T18:04:28.753Z,16.65
2022-08-21T18:07:07.598Z,15.57
2022-08-21T18:09:42.421Z,16.08
2022-08-21T18:12:23.210Z,16.55
2022-08-21T18:15:05.110Z,15.80
2022-08-21T18:17:45.429Z,14.68
2022-08-21T18:20:26.827Z,14.00
2022-08-21T18:23:06.781Z,14.43
2022-08-21T18:25:48.185Z,15.77
2022-08-21T18:28:31.656Z,17.23
2022-08-21T18:31:18.904Z,14.95
2022-08-21T18:33:57.884Z,14.88
2022-08-21T18:36:35.716Z,15.13
2022-08-21T18:39:34.954Z,19.42
2022-08-21T18:42:18.299Z,18.25
2022-08-21T18:44:58.610Z,17.92
2022-08-21T18:47:39.832Z,18.45
2022-08-21T18:50:20.707Z,19.23
2022-08-21T18:53:01.113Z,18.98
2022-08-21T18:55:45.057Z,20.42
2022-08-21T18:58:28.860Z,17.88
2022-08-21T19:01:15.072Z,17.08
2022-08-21T19:03:58.496Z,15.18
2022-08-21T19:06:33.592Z,19.15
2022-08-21T19:09:17.180Z,20.13
2022-08-21T19:11:57.870Z,20.27
2022-08-21T19:14:41.305Z,18.08
2022-08-21T19:17:25.404Z,16.38
2022-08-21T19:20:14.792Z,17.98
2022-08-21T19:23:09.471Z,17.02
2022-08-21T19:25:58.565Z,18.08
2022-08-21T19:29:02.083Z,17.25
